sensor_id;sensor_type;location;lat;lon;timestamp;pressure;altitude;pressure_sealevel;temperature;humidity
9139;BME280;4604;48.616;9.548;2023-02-16T00:00:59;97930.38;;;1.53;80.86
9139;BME280;4604;48.616;9.548;2023-02-16T00:03:28;97940.91;;;1.49;81.59
9139;BME280;4604;48.616;9.548;2023-02-16T00:05:54;97940.34;;;1.41;81.73
9139;BME280;4604;48.616;9.548;2023-02-16T00:08:21;97931.69;;;1.41;82.07
9139;BME280;4604;48.616;9.548;2023-02-16T00:10:48;97939.66;;;1.36;83.53
9139;BME280;4604;48.616;9.548;2023-02-16T00:13:28;97946.69;;;1.34;83.07
9139;BME280;4604;48.616;9.548;2023-02-16T00:16:13;97940.78;;;1.29;84.49
9139;BME280;4604;48.616;9.548;2023-02-16T00:18:42;97946.00;;;1.29;84.65
9139;BME280;4604;48.616;9.548;2023-02-16T00:21:09;97938.03;;;1.34;84.50
9139;BME280;4604;48.616;9.548;2023-02-16T00:23:36;97934.59;;;1.33;85.33
9139;BME280;4604;48.616;9.548;2023-02-16T00:26:03;97930.19;;;1.35;85.21
9139;BME280;4604;48.616;9.548;2023-02-16T00:28:30;97928.25;;;1.40;85.50
9139;BME280;4604;48.616;9.548;2023-02-16T00:30:57;97917.13;;;1.37;86.62
9139;BME280;4604;48.616;9.548;2023-02-16T00:33:23;97915.50;;;1.34;86.84
9139;BME280;4604;48.616;9.548;2023-02-16T00:35:51;97911.94;;;1.37;87.14
9139;BME280;4604;48.616;9.548;2023-02-16T00:38:18;97912.75;;;1.37;87.85
9139;BME280;4604;48.616;9.548;2023-02-16T00:40:45;97909.06;;;1.43;88.24
9139;BME280;4604;48.616;9.548;2023-02-16T00:43:22;97907.44;;;1.40;88.22
9139;BME280;4604;48.616;9.548;2023-02-16T00:45:49;97903.91;;;1.41;89.81
9139;BME280;4604;48.616;9.548;2023-02-16T00:48:16;97902.19;;;1.42;89.90
9139;BME280;4604;48.616;9.548;2023-02-16T00:50:43;97900.31;;;1.45;90.97
9139;BME280;4604;48.616;9.548;2023-02-16T00:53:11;97901.16;;;1.68;90.98
9139;BME280;4604;48.616;9.548;2023-02-16T00:55:40;97906.31;;;1.69;91.30
9139;BME280;4604;48.616;9.548;2023-02-16T00:58:12;97910.81;;;1.66;92.22
9139;BME280;4604;48.616;9.548;2023-02-16T01:00:41;97895.19;;;1.66;92.53
9139;BME280;4604;48.616;9.548;2023-02-16T01:03:13;97902.78;;;1.70;92.09
9139;BME280;4604;48.616;9.548;2023-02-16T01:05:41;97895.00;;;1.70;92.09
9139;BME280;4604;48.616;9.548;2023-02-16T01:08:11;97908.00;;;1.70;92.27
9139;BME280;4604;48.616;9.548;2023-02-16T01:10:55;97897.59;;;1.70;91.63
9139;BME280;4604;48.616;9.548;2023-02-16T01:13:38;97898.47;;;1.71;91.52
9139;BME280;4604;48.616;9.548;2023-02-16T01:16:12;97900.16;;;1.72;91.88
9139;BME280;4604;48.616;9.548;2023-02-16T01:18:39;97896.75;;;1.70;91.03
9139;BME280;4604;48.616;9.548;2023-02-16T01:21:06;97900.31;;;1.67;91.80
9139;BME280;4604;48.616;9.548;2023-02-16T01:23:35;97899.53;;;1.65;92.30
9139;BME280;4604;48.616;9.548;2023-02-16T01:26:02;97898.88;;;1.60;92.87
9139;BME280;4604;48.616;9.548;2023-02-16T01:28:28;97900.50;;;1.63;92.43
9139;BME280;4604;48.616;9.548;2023-02-16T01:30:55;97903.94;;;1.63;92.71
9139;BME280;4604;48.616;9.548;2023-02-16T01:33:22;97909.13;;;1.63;92.68
9139;BME280;4604;48.616;9.548;2023-02-16T01:35:49;97909.84;;;1.68;92.59
9139;BME280;4604;48.616;9.548;2023-02-16T01:38:19;97911.00;;;1.83;92.24
9139;BME280;4604;48.616;9.548;2023-02-16T01:40:54;97909.56;;;1.97;91.27
9139;BME280;4604;48.616;9.548;2023-02-16T01:43:25;97886.59;;;1.86;91.84
9139;BME280;4604;48.616;9.548;2023-02-16T01:45:57;97896.31;;;2.03;91.46
9139;BME280;4604;48.616;9.548;2023-02-16T01:48:27;97893.78;;;2.01;92.03
9139;BME280;4604;48.616;9.548;2023-02-16T01:51:01;97897.84;;;1.86;92.01
9139;BME280;4604;48.616;9.548;2023-02-16T01:53:32;97900.81;;;1.77;92.20
9139;BME280;4604;48.616;9.548;2023-02-16T01:56:03;97884.47;;;1.52;91.42
9139;BME280;4604;48.616;9.548;2023-02-16T01:58:36;97901.81;;;1.51;90.92
9139;BME280;4604;48.616;9.548;2023-02-16T02:01:37;97905.09;;;1.34;91.40
9139;BME280;4604;48.616;9.548;2023-02-16T02:04:24;97901.91;;;1.26;92.25
9139;BME280;4604;48.616;9.548;2023-02-16T02:07:14;97911.47;;;1.25;92.37
9139;BME280;4604;48.616;9.548;2023-02-16T02:09:51;97905.44;;;1.25;92.99
9139;BME280;4604;48.616;9.548;2023-02-16T02:12:27;97904.47;;;1.27;93.62
9139;BME280;4604;48.616;9.548;2023-02-16T02:14:54;97895.88;;;1.25;94.26
9139;BME280;4604;48.616;9.548;2023-02-16T02:17:22;97902.66;;;1.30;94.15
9139;BME280;4604;48.616;9.548;2023-02-16T02:19:55;97880.47;;;1.19;94.29
9139;BME280;4604;48.616;9.548;2023-02-16T02:26:34;97898.75;;;1.18;93.55
9139;BME280;4604;48.616;9.548;2023-02-16T02:29:32;97897.50;;;1.04;92.74
9139;BME280;4604;48.616;9.548;2023-02-16T02:32:13;97894.19;;;1.01;93.54
9139;BME280;4604;48.616;9.548;2023-02-16T02:34:53;97889.16;;;0.96;93.93
9139;BME280;4604;48.616;9.548;2023-02-16T02:37:29;97887.63;;;0.91;94.09
9139;BME280;4604;48.616;9.548;2023-02-16T02:40:06;97881.75;;;0.85;94.17
9139;BME280;4604;48.616;9.548;2023-02-16T02:42:40;97879.88;;;0.89;94.28
9139;BME280;4604;48.616;9.548;2023-02-16T02:45:13;97877.59;;;0.80;93.66
9139;BME280;4604;48.616;9.548;2023-02-16T02:47:45;97864.00;;;0.73;93.97
9139;BME280;4604;48.616;9.548;2023-02-16T02:50:43;97865.13;;;0.66;93.90
9139;BME280;4604;48.616;9.548;2023-02-16T02:53:34;97854.94;;;0.60;94.33
9139;BME280;4604;48.616;9.548;2023-02-16T02:56:02;97855.06;;;0.57;94.71
9139;BME280;4604;48.616;9.548;2023-02-16T02:58:53;97865.38;;;0.58;96.15
9139;BME280;4604;48.616;9.548;2023-02-16T03:01:41;97863.84;;;0.53;96.66
9139;BME280;4604;48.616;9.548;2023-02-16T03:04:10;97855.28;;;0.51;97.75
9139;BME280;4604;48.616;9.548;2023-02-16T03:06:43;97850.88;;;0.53;98.06
9139;BME280;4604;48.616;9.548;2023-02-16T03:09:12;97858.63;;;0.54;97.99
9139;BME280;4604;48.616;9.548;2023-02-16T03:11:40;97852.41;;;0.58;98.27
9139;BME280;4604;48.616;9.548;2023-02-16T03:14:30;97863.59;;;0.60;98.55
9139;BME280;4604;48.616;9.548;2023-02-16T03:16:59;97864.34;;;0.64;99.16
9139;BME280;4604;48.616;9.548;2023-02-16T03:19:46;97869.97;;;0.75;99.29
9139;BME280;4604;48.616;9.548;2023-02-16T03:22:33;97862.25;;;0.74;100.00
9139;BME280;4604;48.616;9.548;2023-02-16T03:25:18;97863.78;;;0.79;100.00
9139;BME280;4604;48.616;9.548;2023-02-16T03:28:05;97865.38;;;0.83;99.68
9139;BME280;4604;48.616;9.548;2023-02-16T03:30:54;97866.03;;;0.89;99.93
9139;BME280;4604;48.616;9.548;2023-02-16T03:33:22;97865.91;;;0.92;99.96
9139;BME280;4604;48.616;9.548;2023-02-16T03:35:50;97859.31;;;1.06;99.72
9139;BME280;4604;48.616;9.548;2023-02-16T03:38:17;97862.88;;;1.04;99.54
9139;BME280;4604;48.616;9.548;2023-02-16T03:40:46;97853.28;;;1.06;100.00
9139;BME280;4604;48.616;9.548;2023-02-16T03:43:13;97859.63;;;0.97;99.84
9139;BME280;4604;48.616;9.548;2023-02-16T03:45:41;97850.31;;;0.92;99.67
9139;BME280;4604;48.616;9.548;2023-02-16T03:48:10;97847.84;;;0.89;99.77
9139;BME280;4604;48.616;9.548;2023-02-16T03:50:37;97852.13;;;0.90;97.93
9139;BME280;4604;48.616;9.548;2023-02-16T03:53:04;97854.97;;;0.83;98.71
9139;BME280;4604;48.616;9.548;2023-02-16T03:55:34;97854.13;;;0.83;99.17
9139;BME280;4604;48.616;9.548;2023-02-16T03:58:02;97855.69;;;0.87;99.24
9139;BME280;4604;48.616;9.548;2023-02-16T04:00:29;97862.31;;;0.96;99.92
9139;BME280;4604;48.616;9.548;2023-02-16T04:02:55;97870.63;;;1.05;99.40
9139;BME280;4604;48.616;9.548;2023-02-16T04:05:23;97878.19;;;1.12;98.40
9139;BME280;4604;48.616;9.548;2023-02-16T04:07:50;97878.63;;;1.23;100.00
9139;BME280;4604;48.616;9.548;2023-02-16T04:10:17;97884.97;;;1.16;100.00
9139;BME280;4604;48.616;9.548;2023-02-16T04:12:44;97890.34;;;1.11;100.00
9139;BME280;4604;48.616;9.548;2023-02-16T04:15:12;97899.09;;;1.09;100.00
9139;BME280;4604;48.616;9.548;2023-02-16T04:17:39;97895.81;;;1.03;100.00
9139;BME280;4604;48.616;9.548;2023-02-16T04:20:07;97897.50;;;1.04;100.00
9139;BME280;4604;48.616;9.548;2023-02-16T04:22:36;97884.41;;;0.84;100.00
9139;BME280;4604;48.616;9.548;2023-02-16T04:25:03;97902.44;;;0.89;100.00
9139;BME280;4604;48.616;9.548;2023-02-16T04:27:30;97899.03;;;0.87;100.00
9139;BME280;4604;48.616;9.548;2023-02-16T04:29:57;97901.94;;;0.77;100.00
9139;BME280;4604;48.616;9.548;2023-02-16T04:32:25;97910.03;;;0.70;100.00
9139;BME280;4604;48.616;9.548;2023-02-16T04:34:52;97900.75;;;0.62;100.00
9139;BME280;4604;48.616;9.548;2023-02-16T04:37:18;97901.75;;;0.58;99.92
9139;BME280;4604;48.616;9.548;2023-02-16T04:39:46;97904.31;;;0.60;99.67
9139;BME280;4604;48.616;9.548;2023-02-16T04:42:13;97887.38;;;0.48;100.00
9139;BME280;4604;48.616;9.548;2023-02-16T04:44:40;97895.81;;;0.55;100.00
9139;BME280;4604;48.616;9.548;2023-02-16T04:47:07;97891.75;;;0.48;100.00
9139;BME280;4604;48.616;9.548;2023-02-16T04:49:33;97895.25;;;0.47;99.47
9139;BME280;4604;48.616;9.548;2023-02-16T04:52:00;97891.09;;;0.41;100.00
9139;BME280;4604;48.616;9.548;2023-02-16T04:54:28;97884.34;;;0.37;100.00
9139;BME280;4604;48.616;9.548;2023-02-16T04:56:56;97891.44;;;0.32;99.94
9139;BME280;4604;48.616;9.548;2023-02-16T04:59:23;97890.53;;;0.33;100.00
9139;BME280;4604;48.616;9.548;2023-02-16T05:01:50;97891.25;;;0.36;98.97
9139;BME280;4604;48.616;9.548;2023-02-16T05:04:17;97893.50;;;0.22;99.89
9139;BME280;4604;48.616;9.548;2023-02-16T05:06:44;97887.22;;;0.28;100.00
9139;BME280;4604;48.616;9.548;2023-02-16T05:09:11;97898.47;;;0.28;100.00
9139;BME280;4604;48.616;9.548;2023-02-16T05:11:38;97889.53;;;0.37;100.00
9139;BME280;4604;48.616;9.548;2023-02-16T05:14:25;97900.47;;;0.45;100.00
9139;BME280;4604;48.616;9.548;2023-02-16T05:17:07;97888.75;;;0.58;100.00
9139;BME280;4604;48.616;9.548;2023-02-16T05:19:35;97886.19;;;0.82;100.00
9139;BME280;4604;48.616;9.548;2023-02-16T05:22:02;97882.75;;;0.81;100.00
9139;BME280;4604;48.616;9.548;2023-02-16T05:24:29;97872.31;;;0.83;100.00
9139;BME280;4604;48.616;9.548;2023-02-16T05:26:56;97885.63;;;0.97;100.00
9139;BME280;4604;48.616;9.548;2023-02-16T05:29:24;97891.03;;;0.93;100.00
9139;BME280;4604;48.616;9.548;2023-02-16T05:31:51;97891.22;;;0.87;100.00
9139;BME280;4604;48.616;9.548;2023-02-16T05:34:17;97894.13;;;0.79;100.00
9139;BME280;4604;48.616;9.548;2023-02-16T05:36:44;97885.78;;;0.69;100.00
9139;BME280;4604;48.616;9.548;2023-02-16T05:39:11;97892.84;;;0.66;100.00
9139;BME280;4604;48.616;9.548;2023-02-16T05:41:37;97897.41;;;0.59;100.00
9139;BME280;4604;48.616;9.548;2023-02-16T05:44:05;97896.66;;;0.55;100.00
9139;BME280;4604;48.616;9.548;2023-02-16T05:46:35;97903.63;;;0.55;100.00
9139;BME280;4604;48.616;9.548;2023-02-16T05:49:03;97905.44;;;0.51;100.00
9139;BME280;4604;48.616;9.548;2023-02-16T05:51:29;97905.56;;;0.48;100.00
9139;BME280;4604;48.616;9.548;2023-02-16T05:53:56;97915.78;;;0.53;100.00
9139;BME280;4604;48.616;9.548;2023-02-16T05:56:24;97911.88;;;0.66;100.00
9139;BME280;4604;48.616;9.548;2023-02-16T05:58:51;97922.44;;;0.61;100.00
9139;BME280;4604;48.616;9.548;2023-02-16T06:01:18;97923.28;;;0.62;100.00
9139;BME280;4604;48.616;9.548;2023-02-16T06:03:47;97925.72;;;0.67;100.00
9139;BME280;4604;48.616;9.548;2023-02-16T06:06:13;97922.38;;;0.63;100.00
9139;BME280;4604;48.616;9.548;2023-02-16T06:08:40;97923.69;;;0.75;100.00
9139;BME280;4604;48.616;9.548;2023-02-16T06:11:07;97931.38;;;0.78;100.00
9139;BME280;4604;48.616;9.548;2023-02-16T06:13:55;97934.31;;;0.69;100.00
9139;BME280;4604;48.616;9.548;2023-02-16T06:16:24;97936.28;;;0.62;100.00
9139;BME280;4604;48.616;9.548;2023-02-16T06:18:52;97937.41;;;0.53;100.00
9139;BME280;4604;48.616;9.548;2023-02-16T06:21:19;97942.94;;;0.44;100.00
9139;BME280;4604;48.616;9.548;2023-02-16T06:23:46;97928.56;;;0.34;100.00
9139;BME280;4604;48.616;9.548;2023-02-16T06:26:13;97942.44;;;0.33;100.00
9139;BME280;4604;48.616;9.548;2023-02-16T06:28:39;97930.66;;;0.23;100.00
9139;BME280;4604;48.616;9.548;2023-02-16T06:31:06;97931.63;;;0.20;100.00
9139;BME280;4604;48.616;9.548;2023-02-16T06:33:33;97936.97;;;0.15;100.00
9139;BME280;4604;48.616;9.548;2023-02-16T06:36:01;97932.66;;;0.14;100.00
9139;BME280;4604;48.616;9.548;2023-02-16T06:38:27;97936.28;;;0.10;100.00
9139;BME280;4604;48.616;9.548;2023-02-16T06:40:54;97940.69;;;0.07;100.00
9139;BME280;4604;48.616;9.548;2023-02-16T06:43:21;97937.22;;;0.08;100.00
9139;BME280;4604;48.616;9.548;2023-02-16T06:45:47;97947.59;;;0.08;100.00
9139;BME280;4604;48.616;9.548;2023-02-16T06:48:14;97933.56;;;0.13;100.00
9139;BME280;4604;48.616;9.548;2023-02-16T06:50:41;97946.28;;;0.21;100.00
9139;BME280;4604;48.616;9.548;2023-02-16T06:53:09;97953.53;;;0.38;100.00
9139;BME280;4604;48.616;9.548;2023-02-16T06:55:35;97948.91;;;0.46;100.00
9139;BME280;4604;48.616;9.548;2023-02-16T06:58:02;97951.59;;;0.70;100.00
9139;BME280;4604;48.616;9.548;2023-02-16T07:00:29;97955.03;;;0.95;100.00
9139;BME280;4604;48.616;9.548;2023-02-16T07:02:56;97955.31;;;1.11;100.00
9139;BME280;4604;48.616;9.548;2023-02-16T07:05:23;97959.56;;;1.14;100.00
9139;BME280;4604;48.616;9.548;2023-02-16T07:07:50;97954.59;;;1.08;100.00
9139;BME280;4604;48.616;9.548;2023-02-16T07:10:18;97957.38;;;1.03;100.00
9139;BME280;4604;48.616;9.548;2023-02-16T07:12:45;97963.69;;;0.96;100.00
9139;BME280;4604;48.616;9.548;2023-02-16T07:15:12;97954.41;;;0.89;100.00
9139;BME280;4604;48.616;9.548;2023-02-16T07:17:38;97958.00;;;0.84;100.00
9139;BME280;4604;48.616;9.548;2023-02-16T07:20:06;97960.75;;;0.80;100.00
9139;BME280;4604;48.616;9.548;2023-02-16T07:22:33;97970.25;;;0.81;100.00
9139;BME280;4604;48.616;9.548;2023-02-16T07:25:00;97964.38;;;0.76;100.00
9139;BME280;4604;48.616;9.548;2023-02-16T07:27:28;97972.78;;;0.82;100.00
9139;BME280;4604;48.616;9.548;2023-02-16T07:29:55;97971.59;;;0.93;100.00
9139;BME280;4604;48.616;9.548;2023-02-16T07:32:22;97974.81;;;0.99;100.00
9139;BME280;4604;48.616;9.548;2023-02-16T07:34:49;97976.06;;;1.13;100.00
9139;BME280;4604;48.616;9.548;2023-02-16T07:37:16;97981.69;;;1.25;100.00
9139;BME280;4604;48.616;9.548;2023-02-16T07:39:43;97976.34;;;1.28;100.00
9139;BME280;4604;48.616;9.548;2023-02-16T07:42:10;97976.16;;;1.35;100.00
9139;BME280;4604;48.616;9.548;2023-02-16T07:44:38;97971.63;;;1.40;100.00
9139;BME280;4604;48.616;9.548;2023-02-16T07:47:04;97971.50;;;1.43;100.00
9139;BME280;4604;48.616;9.548;2023-02-16T07:49:31;97965.38;;;1.44;100.00
9139;BME280;4604;48.616;9.548;2023-02-16T07:51:58;97973.81;;;1.50;100.00
9139;BME280;4604;48.616;9.548;2023-02-16T07:54:24;97975.16;;;1.61;100.00
9139;BME280;4604;48.616;9.548;2023-02-16T07:56:51;97982.31;;;1.78;100.00
9139;BME280;4604;48.616;9.548;2023-02-16T07:59:17;97982.59;;;1.93;100.00
9139;BME280;4604;48.616;9.548;2023-02-16T08:01:45;97975.63;;;2.16;99.81
9139;BME280;4604;48.616;9.548;2023-02-16T08:04:12;97975.75;;;2.35;100.00
9139;BME280;4604;48.616;9.548;2023-02-16T08:06:39;97974.13;;;2.53;99.61
9139;BME280;4604;48.616;9.548;2023-02-16T08:09:05;97978.63;;;2.70;97.88
9139;BME280;4604;48.616;9.548;2023-02-16T08:11:32;97974.53;;;2.85;97.85
9139;BME280;4604;48.616;9.548;2023-02-16T08:13:59;97974.44;;;3.07;96.70
9139;BME280;4604;48.616;9.548;2023-02-16T08:16:27;97954.75;;;3.20;95.42
9139;BME280;4604;48.616;9.548;2023-02-16T08:18:56;97970.31;;;3.42;94.97
9139;BME280;4604;48.616;9.548;2023-02-16T08:21:29;97973.81;;;3.60;94.74
9139;BME280;4604;48.616;9.548;2023-02-16T08:23:57;97976.91;;;3.87;93.75
9139;BME280;4604;48.616;9.548;2023-02-16T08:26:26;97974.38;;;4.04;92.05
9139;BME280;4604;48.616;9.548;2023-02-16T08:28:56;97978.66;;;4.24;89.84
9139;BME280;4604;48.616;9.548;2023-02-16T08:31:25;97963.38;;;4.34;89.57
9139;BME280;4604;48.616;9.548;2023-02-16T08:33:53;97971.91;;;4.55;87.92
9139;BME280;4604;48.616;9.548;2023-02-16T08:36:23;97975.63;;;4.68;87.56
9139;BME280;4604;48.616;9.548;2023-02-16T08:38:53;97977.16;;;4.72;85.61
9139;BME280;4604;48.616;9.548;2023-02-16T08:41:22;97976.28;;;4.89;83.64
9139;BME280;4604;48.616;9.548;2023-02-16T08:43:49;97973.91;;;4.85;82.65
9139;BME280;4604;48.616;9.548;2023-02-16T08:46:17;97980.53;;;4.92;83.03
9139;BME280;4604;48.616;9.548;2023-02-16T08:48:43;97981.00;;;5.00;84.01
9139;BME280;4604;48.616;9.548;2023-02-16T08:51:13;97975.00;;;4.98;84.68
9139;BME280;4604;48.616;9.548;2023-02-16T08:53:41;97975.28;;;5.27;83.88
9139;BME280;4604;48.616;9.548;2023-02-16T08:56:08;97992.28;;;5.18;84.57
9139;BME280;4604;48.616;9.548;2023-02-16T08:58:36;97989.78;;;5.32;82.85
9139;BME280;4604;48.616;9.548;2023-02-16T09:01:04;97986.47;;;5.29;82.97
9139;BME280;4604;48.616;9.548;2023-02-16T09:03:32;97984.22;;;5.39;82.71
9139;BME280;4604;48.616;9.548;2023-02-16T09:06:01;97983.84;;;5.62;81.59
9139;BME280;4604;48.616;9.548;2023-02-16T09:08:29;97990.22;;;5.74;81.10
9139;BME280;4604;48.616;9.548;2023-02-16T09:11:01;97984.88;;;5.75;81.07
9139;BME280;4604;48.616;9.548;2023-02-16T09:13:27;97991.16;;;5.89;80.20
9139;BME280;4604;48.616;9.548;2023-02-16T09:15:54;97980.34;;;5.95;79.07
9139;BME280;4604;48.616;9.548;2023-02-16T09:18:26;97980.38;;;6.11;78.69
9139;BME280;4604;48.616;9.548;2023-02-16T09:20:52;97974.19;;;6.28;77.37
9139;BME280;4604;48.616;9.548;2023-02-16T09:23:19;97968.75;;;6.47;76.41
9139;BME280;4604;48.616;9.548;2023-02-16T09:25:46;97973.19;;;6.60;74.75
9139;BME280;4604;48.616;9.548;2023-02-16T09:28:14;97977.63;;;6.74;74.58
9139;BME280;4604;48.616;9.548;2023-02-16T09:30:40;97976.06;;;6.86;73.16
9139;BME280;4604;48.616;9.548;2023-02-16T09:33:08;97976.69;;;7.05;72.08
9139;BME280;4604;48.616;9.548;2023-02-16T09:35:37;97978.91;;;7.12;71.32
9139;BME280;4604;48.616;9.548;2023-02-16T09:38:04;97971.75;;;7.29;70.54
9139;BME280;4604;48.616;9.548;2023-02-16T09:40:32;97985.25;;;7.38;70.51
9139;BME280;4604;48.616;9.548;2023-02-16T09:43:05;97974.47;;;7.57;70.05
9139;BME280;4604;48.616;9.548;2023-02-16T09:45:40;97977.66;;;7.62;70.18
9139;BME280;4604;48.616;9.548;2023-02-16T09:48:20;97975.06;;;7.89;69.42
9139;BME280;4604;48.616;9.548;2023-02-16T09:50:49;97966.44;;;7.87;69.84
9139;BME280;4604;48.616;9.548;2023-02-16T09:53:20;97969.25;;;7.98;68.08
9139;BME280;4604;48.616;9.548;2023-02-16T09:55:53;97968.41;;;7.98;68.46
9139;BME280;4604;48.616;9.548;2023-02-16T09:58:36;97972.53;;;8.29;67.19
9139;BME280;4604;48.616;9.548;2023-02-16T10:01:15;97964.16;;;8.36;66.07
9139;BME280;4604;48.616;9.548;2023-02-16T10:03:52;97959.81;;;8.50;65.73
9139;BME280;4604;48.616;9.548;2023-02-16T10:06:28;97962.81;;;8.71;65.30
9139;BME280;4604;48.616;9.548;2023-02-16T10:08:58;97968.41;;;8.92;63.06
9139;BME280;4604;48.616;9.548;2023-02-16T10:11:31;97970.44;;;8.88;63.37
9139;BME280;4604;48.616;9.548;2023-02-16T10:14:14;97966.53;;;9.07;62.63
9139;BME280;4604;48.616;9.548;2023-02-16T10:16:50;97959.81;;;9.15;62.04
9139;BME280;4604;48.616;9.548;2023-02-16T10:19:21;97960.66;;;9.29;62.02
9139;BME280;4604;48.616;9.548;2023-02-16T10:21:54;97958.53;;;9.34;61.74
9139;BME280;4604;48.616;9.548;2023-02-16T10:24:24;97963.50;;;9.38;59.65
9139;BME280;4604;48.616;9.548;2023-02-16T10:26:58;97958.25;;;9.51;58.43
9139;BME280;4604;48.616;9.548;2023-02-16T10:29:27;97958.72;;;9.69;56.99
9139;BME280;4604;48.616;9.548;2023-02-16T10:32:02;97960.47;;;9.94;55.65
9139;BME280;4604;48.616;9.548;2023-02-16T10:34:41;97953.69;;;10.03;55.25
9139;BME280;4604;48.616;9.548;2023-02-16T10:37:34;97958.69;;;10.32;54.39
9139;BME280;4604;48.616;9.548;2023-02-16T10:40:21;97954.78;;;10.24;53.88
9139;BME280;4604;48.616;9.548;2023-02-16T10:42:56;97960.47;;;10.31;53.75
9139;BME280;4604;48.616;9.548;2023-02-16T10:45:28;97955.50;;;10.39;52.41
9139;BME280;4604;48.616;9.548;2023-02-16T10:47:58;97955.41;;;10.52;53.68
9139;BME280;4604;48.616;9.548;2023-02-16T10:50:27;97951.97;;;10.63;52.75
9139;BME280;4604;48.616;9.548;2023-02-16T10:52:59;97936.59;;;10.57;52.93
9139;BME280;4604;48.616;9.548;2023-02-16T10:55:26;97951.94;;;10.76;51.87
9139;BME280;4604;48.616;9.548;2023-02-16T10:57:56;97945.53;;;11.02;52.05
9139;BME280;4604;48.616;9.548;2023-02-16T11:00:36;97948.75;;;11.06;51.47
9139;BME280;4604;48.616;9.548;2023-02-16T11:03:11;97953.94;;;11.07;50.95
9139;BME280;4604;48.616;9.548;2023-02-16T11:05:38;97954.88;;;10.95;50.58
9139;BME280;4604;48.616;9.548;2023-02-16T11:08:07;97951.16;;;10.98;51.23
9139;BME280;4604;48.616;9.548;2023-02-16T11:10:40;97943.50;;;11.28;50.66
9139;BME280;4604;48.616;9.548;2023-02-16T11:13:21;97944.44;;;11.16;49.60
9139;BME280;4604;48.616;9.548;2023-02-16T11:15:51;97944.47;;;11.27;50.41
9139;BME280;4604;48.616;9.548;2023-02-16T11:18:31;97948.56;;;11.43;49.41
9139;BME280;4604;48.616;9.548;2023-02-16T11:20:59;97934.63;;;11.41;47.91
9139;BME280;4604;48.616;9.548;2023-02-16T11:23:28;97937.38;;;11.50;48.44
9139;BME280;4604;48.616;9.548;2023-02-16T11:25:58;97931.63;;;11.56;49.25
9139;BME280;4604;48.616;9.548;2023-02-16T11:28:29;97920.19;;;11.67;50.00
9139;BME280;4604;48.616;9.548;2023-02-16T11:31:00;97921.38;;;11.86;48.62
9139;BME280;4604;48.616;9.548;2023-02-16T11:33:31;97912.97;;;11.92;47.40
9139;BME280;4604;48.616;9.548;2023-02-16T11:35:59;97905.28;;;12.00;47.85
9139;BME280;4604;48.616;9.548;2023-02-16T11:38:31;97903.41;;;12.23;47.37
9139;BME280;4604;48.616;9.548;2023-02-16T11:41:00;97900.94;;;12.31;46.01
9139;BME280;4604;48.616;9.548;2023-02-16T11:43:30;97892.41;;;12.39;44.05
9139;BME280;4604;48.616;9.548;2023-02-16T11:46:00;97886.78;;;12.21;42.80
9139;BME280;4604;48.616;9.548;2023-02-16T11:48:30;97882.44;;;12.31;43.72
9139;BME280;4604;48.616;9.548;2023-02-16T11:51:00;97892.00;;;12.43;42.92
9139;BME280;4604;48.616;9.548;2023-02-16T11:53:29;97890.94;;;12.46;41.04
9139;BME280;4604;48.616;9.548;2023-02-16T11:56:12;97882.09;;;12.78;40.68
9139;BME280;4604;48.616;9.548;2023-02-16T11:58:39;97879.47;;;12.78;39.20
9139;BME280;4604;48.616;9.548;2023-02-16T12:01:16;97877.44;;;12.70;39.51
9139;BME280;4604;48.616;9.548;2023-02-16T12:03:58;97880.72;;;12.83;38.71
9139;BME280;4604;48.616;9.548;2023-02-16T12:06:36;97878.97;;;12.94;38.42
9139;BME280;4604;48.616;9.548;2023-02-16T12:09:16;97884.00;;;12.97;38.89
9139;BME280;4604;48.616;9.548;2023-02-16T12:11:54;97874.00;;;13.00;39.27
9139;BME280;4604;48.616;9.548;2023-02-16T12:14:32;97866.44;;;12.96;39.11
9139;BME280;4604;48.616;9.548;2023-02-16T12:17:06;97863.41;;;13.00;39.43
9139;BME280;4604;48.616;9.548;2023-02-16T12:19:42;97852.97;;;13.09;39.31
9139;BME280;4604;48.616;9.548;2023-02-16T12:22:20;97856.91;;;13.14;38.90
9139;BME280;4604;48.616;9.548;2023-02-16T12:25:02;97846.56;;;13.32;39.29
9139;BME280;4604;48.616;9.548;2023-02-16T12:27:36;97853.84;;;13.40;38.67
9139;BME280;4604;48.616;9.548;2023-02-16T12:30:11;97833.16;;;13.34;39.14
9139;BME280;4604;48.616;9.548;2023-02-16T12:32:55;97832.03;;;13.36;38.79
9139;BME280;4604;48.616;9.548;2023-02-16T12:35:49;97829.69;;;13.43;38.42
9139;BME280;4604;48.616;9.548;2023-02-16T12:38:31;97837.81;;;13.41;38.49
9139;BME280;4604;48.616;9.548;2023-02-16T12:41:13;97840.19;;;13.44;38.72
9139;BME280;4604;48.616;9.548;2023-02-16T12:43:47;97834.75;;;13.56;38.57
9139;BME280;4604;48.616;9.548;2023-02-16T12:46:19;97831.56;;;13.52;38.73
9139;BME280;4604;48.616;9.548;2023-02-16T12:48:49;97832.56;;;13.61;38.90
9139;BME280;4604;48.616;9.548;2023-02-16T12:51:24;97834.19;;;13.52;38.93
9139;BME280;4604;48.616;9.548;2023-02-16T12:53:56;97828.47;;;13.47;39.69
9139;BME280;4604;48.616;9.548;2023-02-16T12:56:27;97826.81;;;13.65;39.56
9139;BME280;4604;48.616;9.548;2023-02-16T12:59:05;97814.44;;;13.66;39.64
9139;BME280;4604;48.616;9.548;2023-02-16T13:01:34;97810.69;;;13.78;39.44
9139;BME280;4604;48.616;9.548;2023-02-16T13:04:06;97809.09;;;13.56;39.49
9139;BME280;4604;48.616;9.548;2023-02-16T13:06:45;97804.00;;;13.34;39.15
9139;BME280;4604;48.616;9.548;2023-02-16T13:09:23;97802.75;;;13.38;40.48
9139;BME280;4604;48.616;9.548;2023-02-16T13:11:56;97801.22;;;13.35;40.03
9139;BME280;4604;48.616;9.548;2023-02-16T13:14:26;97788.94;;;13.34;40.18
9139;BME280;4604;48.616;9.548;2023-02-16T13:16:58;97780.00;;;13.35;39.80
9139;BME280;4604;48.616;9.548;2023-02-16T13:19:26;97777.97;;;13.48;39.92
9139;BME280;4604;48.616;9.548;2023-02-16T13:25:05;97788.13;;;13.53;40.82
9139;BME280;4604;48.616;9.548;2023-02-16T13:27:40;97785.31;;;13.45;39.99
9139;BME280;4604;48.616;9.548;2023-02-16T13:30:36;97774.97;;;13.32;40.07
9139;BME280;4604;48.616;9.548;2023-02-16T13:33:17;97780.06;;;13.24;40.46
9139;BME280;4604;48.616;9.548;2023-02-16T13:35:59;97775.31;;;13.18;40.95
9139;BME280;4604;48.616;9.548;2023-02-16T13:39:04;97773.59;;;12.97;41.07
9139;BME280;4604;48.616;9.548;2023-02-16T13:44:43;97780.75;;;13.16;41.53
9139;BME280;4604;48.616;9.548;2023-02-16T13:47:15;97784.47;;;13.35;41.82
9139;BME280;4604;48.616;9.548;2023-02-16T13:49:44;97791.84;;;13.31;41.43
9139;BME280;4604;48.616;9.548;2023-02-16T13:52:28;97789.63;;;13.36;41.75
9139;BME280;4604;48.616;9.548;2023-02-16T13:54:58;97784.03;;;13.30;41.12
9139;BME280;4604;48.616;9.548;2023-02-16T13:57:58;97783.25;;;13.39;41.59
9139;BME280;4604;48.616;9.548;2023-02-16T14:00:29;97784.38;;;13.56;41.27